sensor_id;sensor_type;location;lat;lon;timestamp;P1;P2;P0
64627;PMS5003;59036;50.960;0.314;2022-07-24T00:01:51;8;8;
64627;PMS5003;59036;50.960;0.314;2022-07-24T00:04:18;9;9;
64627;PMS5003;59036;50.960;0.314;2022-07-24T00:06:45;8;8;
64627;PMS5003;59036;50.960;0.314;2022-07-24T00:09:12;8;8;
64627;PMS5003;59036;50.960;0.314;2022-07-24T00:11:39;8;8;
64627;PMS5003;59036;50.960;0.314;2022-07-24T00:14:06;9;8;
64627;PMS5003;59036;50.960;0.314;2022-07-24T00:16:33;8;8;
64627;PMS5003;59036;50.960;0.314;2022-07-24T00:19:00;9;9;
64627;PMS5003;59036;50.960;0.314;2022-07-24T00:21:27;8;8;
64627;PMS5003;59036;50.960;0.314;2022-07-24T00:23:54;10;10;
64627;PMS5003;59036;50.960;0.314;2022-07-24T00:26:21;11;11;
64627;PMS5003;59036;50.960;0.314;2022-07-24T00:28:48;8;8;
64627;PMS5003;59036;50.960;0.314;2022-07-24T00:31:16;9;7;
64627;PMS5003;59036;50.960;0.314;2022-07-24T00:33:42;9;9;
64627;PMS5003;59036;50.960;0.314;2022-07-24T00:36:11;9;8;
64627;PMS5003;59036;50.960;0.314;2022-07-24T00:38:38;10;10;
64627;PMS5003;59036;50.960;0.314;2022-07-24T00:41:05;10;9;
64627;PMS5003;59036;50.960;0.314;2022-07-24T00:43:32;6;5;
64627;PMS5003;59036;50.960;0.314;2022-07-24T00:46:00;11;10;
64627;PMS5003;59036;50.960;0.314;2022-07-24T00:48:27;12;12;
64627;PMS5003;59036;50.960;0.314;2022-07-24T00:50:54;9;9;
64627;PMS5003;59036;50.960;0.314;2022-07-24T00:53:21;9;9;
64627;PMS5003;59036;50.960;0.314;2022-07-24T00:55:48;9;9;
64627;PMS5003;59036;50.960;0.314;2022-07-24T00:58:15;8;7;
64627;PMS5003;59036;50.960;0.314;2022-07-24T01:00:42;8;7;
64627;PMS5003;59036;50.960;0.314;2022-07-24T01:03:10;8;8;
64627;PMS5003;59036;50.960;0.314;2022-07-24T01:05:37;9;7;
64627;PMS5003;59036;50.960;0.314;2022-07-24T01:08:04;9;9;
64627;PMS5003;59036;50.960;0.314;2022-07-24T01:10:31;9;8;
64627;PMS5003;59036;50.960;0.314;2022-07-24T01:12:58;10;8;
64627;PMS5003;59036;50.960;0.314;2022-07-24T01:15:26;7;7;
64627;PMS5003;59036;50.960;0.314;2022-07-24T01:17:53;9;9;
64627;PMS5003;59036;50.960;0.314;2022-07-24T01:20:20;8;8;
64627;PMS5003;59036;50.960;0.314;2022-07-24T01:22:47;8;8;
64627;PMS5003;59036;50.960;0.314;2022-07-24T01:25:14;9;9;
64627;PMS5003;59036;50.960;0.314;2022-07-24T01:27:41;7;7;
64627;PMS5003;59036;50.960;0.314;2022-07-24T01:30:08;9;8;
64627;PMS5003;59036;50.960;0.314;2022-07-24T01:32:36;8;8;
64627;PMS5003;59036;50.960;0.314;2022-07-24T01:35:03;10;9;
64627;PMS5003;59036;50.960;0.314;2022-07-24T01:37:31;9;9;
64627;PMS5003;59036;50.960;0.314;2022-07-24T01:39:58;9;9;
64627;PMS5003;59036;50.960;0.314;2022-07-24T01:42:25;8;8;
64627;PMS5003;59036;50.960;0.314;2022-07-24T01:44:52;8;8;
64627;PMS5003;59036;50.960;0.314;2022-07-24T01:47:19;8;8;
64627;PMS5003;59036;50.960;0.314;2022-07-24T01:49:46;10;10;
64627;PMS5003;59036;50.960;0.314;2022-07-24T01:52:13;8;8;
64627;PMS5003;59036;50.960;0.314;2022-07-24T01:54:40;9;9;
64627;PMS5003;59036;50.960;0.314;2022-07-24T01:57:07;9;9;
64627;PMS5003;59036;50.960;0.314;2022-07-24T01:59:34;7;7;
64627;PMS5003;59036;50.960;0.314;2022-07-24T02:02:01;7;7;
64627;PMS5003;59036;50.960;0.314;2022-07-24T02:04:28;11;11;
64627;PMS5003;59036;50.960;0.314;2022-07-24T02:06:55;11;9;
64627;PMS5003;59036;50.960;0.314;2022-07-24T02:09:22;9;8;
64627;PMS5003;59036;50.960;0.314;2022-07-24T02:11:49;9;9;
64627;PMS5003;59036;50.960;0.314;2022-07-24T02:14:16;10;10;
64627;PMS5003;59036;50.960;0.314;2022-07-24T02:16:42;9;8;
64627;PMS5003;59036;50.960;0.314;2022-07-24T02:19:10;10;10;
64627;PMS5003;59036;50.960;0.314;2022-07-24T02:21:37;11;10;
64627;PMS5003;59036;50.960;0.314;2022-07-24T02:24:05;13;13;
64627;PMS5003;59036;50.960;0.314;2022-07-24T02:26:32;8;8;
64627;PMS5003;59036;50.960;0.314;2022-07-24T02:29:00;10;8;
64627;PMS5003;59036;50.960;0.314;2022-07-24T02:31:27;10;10;
64627;PMS5003;59036;50.960;0.314;2022-07-24T02:33:54;8;8;
64627;PMS5003;59036;50.960;0.314;2022-07-24T02:36:21;7;7;
64627;PMS5003;59036;50.960;0.314;2022-07-24T02:38:48;8;8;
64627;PMS5003;59036;50.960;0.314;2022-07-24T02:41:15;9;8;
64627;PMS5003;59036;50.960;0.314;2022-07-24T02:43:41;7;7;
64627;PMS5003;59036;50.960;0.314;2022-07-24T02:46:08;9;8;
64627;PMS5003;59036;50.960;0.314;2022-07-24T02:48:35;10;10;
64627;PMS5003;59036;50.960;0.314;2022-07-24T02:51:02;12;12;
64627;PMS5003;59036;50.960;0.314;2022-07-24T02:53:31;10;10;
64627;PMS5003;59036;50.960;0.314;2022-07-24T02:55:58;6;6;
64627;PMS5003;59036;50.960;0.314;2022-07-24T02:58:25;7;7;
64627;PMS5003;59036;50.960;0.314;2022-07-24T03:00:51;7;7;
64627;PMS5003;59036;50.960;0.314;2022-07-24T03:03:18;11;11;
64627;PMS5003;59036;50.960;0.314;2022-07-24T03:05:45;9;9;
64627;PMS5003;59036;50.960;0.314;2022-07-24T03:08:12;9;8;
64627;PMS5003;59036;50.960;0.314;2022-07-24T03:10:40;8;8;
64627;PMS5003;59036;50.960;0.314;2022-07-24T03:13:06;11;11;
64627;PMS5003;59036;50.960;0.314;2022-07-24T03:15:33;15;13;
64627;PMS5003;59036;50.960;0.314;2022-07-24T03:18:00;11;11;
64627;PMS5003;59036;50.960;0.314;2022-07-24T03:20:28;11;11;
64627;PMS5003;59036;50.960;0.314;2022-07-24T03:22:55;11;10;
64627;PMS5003;59036;50.960;0.314;2022-07-24T03:25:23;12;12;
64627;PMS5003;59036;50.960;0.314;2022-07-24T03:27:51;13;12;
64627;PMS5003;59036;50.960;0.314;2022-07-24T03:30:19;11;9;
64627;PMS5003;59036;50.960;0.314;2022-07-24T03:32:46;8;8;
64627;PMS5003;59036;50.960;0.314;2022-07-24T03:35:13;8;8;
64627;PMS5003;59036;50.960;0.314;2022-07-24T03:37:40;8;7;
64627;PMS5003;59036;50.960;0.314;2022-07-24T03:40:08;8;8;
64627;PMS5003;59036;50.960;0.314;2022-07-24T03:42:36;9;8;
64627;PMS5003;59036;50.960;0.314;2022-07-24T03:45:03;10;10;
64627;PMS5003;59036;50.960;0.314;2022-07-24T03:47:30;10;10;
64627;PMS5003;59036;50.960;0.314;2022-07-24T03:49:58;9;9;
64627;PMS5003;59036;50.960;0.314;2022-07-24T03:52:25;9;8;
64627;PMS5003;59036;50.960;0.314;2022-07-24T03:54:52;12;11;
64627;PMS5003;59036;50.960;0.314;2022-07-24T03:57:19;10;10;
64627;PMS5003;59036;50.960;0.314;2022-07-24T03:59:47;11;10;
64627;PMS5003;59036;50.960;0.314;2022-07-24T04:02:13;9;8;
64627;PMS5003;59036;50.960;0.314;2022-07-24T04:04:41;12;12;
64627;PMS5003;59036;50.960;0.314;2022-07-24T04:07:08;11;11;
64627;PMS5003;59036;50.960;0.314;2022-07-24T04:09:35;13;13;
64627;PMS5003;59036;50.960;0.314;2022-07-24T04:12:02;8;7;
64627;PMS5003;59036;50.960;0.314;2022-07-24T04:14:30;12;11;
64627;PMS5003;59036;50.960;0.314;2022-07-24T04:16:57;12;11;
64627;PMS5003;59036;50.960;0.314;2022-07-24T04:19:24;12;10;
64627;PMS5003;59036;50.960;0.314;2022-07-24T04:21:51;9;9;
64627;PMS5003;59036;50.960;0.314;2022-07-24T04:24:18;13;13;
64627;PMS5003;59036;50.960;0.314;2022-07-24T04:26:45;10;10;
64627;PMS5003;59036;50.960;0.314;2022-07-24T04:29:12;12;11;
64627;PMS5003;59036;50.960;0.314;2022-07-24T04:31:39;14;13;
64627;PMS5003;59036;50.960;0.314;2022-07-24T04:34:06;13;12;
64627;PMS5003;59036;50.960;0.314;2022-07-24T04:36:33;12;12;
64627;PMS5003;59036;50.960;0.314;2022-07-24T04:39:00;12;11;
64627;PMS5003;59036;50.960;0.314;2022-07-24T04:41:27;11;10;
64627;PMS5003;59036;50.960;0.314;2022-07-24T04:43:54;12;12;
64627;PMS5003;59036;50.960;0.314;2022-07-24T04:46:21;10;10;
64627;PMS5003;59036;50.960;0.314;2022-07-24T04:48:48;9;8;
64627;PMS5003;59036;50.960;0.314;2022-07-24T04:51:16;11;11;
64627;PMS5003;59036;50.960;0.314;2022-07-24T04:53:42;10;10;
64627;PMS5003;59036;50.960;0.314;2022-07-24T04:56:09;12;12;
64627;PMS5003;59036;50.960;0.314;2022-07-24T04:58:37;10;10;
64627;PMS5003;59036;50.960;0.314;2022-07-24T05:01:05;9;8;
64627;PMS5003;59036;50.960;0.314;2022-07-24T05:03:31;10;8;
64627;PMS5003;59036;50.960;0.314;2022-07-24T05:05:58;10;10;
64627;PMS5003;59036;50.960;0.314;2022-07-24T05:08:26;10;9;
64627;PMS5003;59036;50.960;0.314;2022-07-24T05:10:53;9;9;
64627;PMS5003;59036;50.960;0.314;2022-07-24T05:13:19;9;9;
64627;PMS5003;59036;50.960;0.314;2022-07-24T05:15:47;10;10;
64627;PMS5003;59036;50.960;0.314;2022-07-24T05:18:14;7;7;
64627;PMS5003;59036;50.960;0.314;2022-07-24T05:20:41;8;8;
64627;PMS5003;59036;50.960;0.314;2022-07-24T05:23:08;7;7;
64627;PMS5003;59036;50.960;0.314;2022-07-24T05:25:35;9;9;
64627;PMS5003;59036;50.960;0.314;2022-07-24T05:28:02;8;8;
64627;PMS5003;59036;50.960;0.314;2022-07-24T05:30:29;8;8;
64627;PMS5003;59036;50.960;0.314;2022-07-24T05:32:56;8;8;
64627;PMS5003;59036;50.960;0.314;2022-07-24T05:35:23;7;7;
64627;PMS5003;59036;50.960;0.314;2022-07-24T05:37:50;7;7;
64627;PMS5003;59036;50.960;0.314;2022-07-24T05:40:17;6;6;
64627;PMS5003;59036;50.960;0.314;2022-07-24T05:42:44;5;5;
64627;PMS5003;59036;50.960;0.314;2022-07-24T05:45:11;9;9;
64627;PMS5003;59036;50.960;0.314;2022-07-24T05:47:38;9;9;
64627;PMS5003;59036;50.960;0.314;2022-07-24T05:50:07;9;8;
64627;PMS5003;59036;50.960;0.314;2022-07-24T05:52:35;6;6;
64627;PMS5003;59036;50.960;0.314;2022-07-24T05:55:03;7;7;
64627;PMS5003;59036;50.960;0.314;2022-07-24T05:57:31;6;5;
64627;PMS5003;59036;50.960;0.314;2022-07-24T05:59:59;6;6;
64627;PMS5003;59036;50.960;0.314;2022-07-24T06:02:25;7;7;
64627;PMS5003;59036;50.960;0.314;2022-07-24T06:04:52;8;8;
64627;PMS5003;59036;50.960;0.314;2022-07-24T06:07:19;7;7;
64627;PMS5003;59036;50.960;0.314;2022-07-24T06:09:46;7;7;
64627;PMS5003;59036;50.960;0.314;2022-07-24T06:12:13;8;7;
64627;PMS5003;59036;50.960;0.314;2022-07-24T06:14:40;6;6;
64627;PMS5003;59036;50.960;0.314;2022-07-24T06:17:07;8;8;
64627;PMS5003;59036;50.960;0.314;2022-07-24T06:19:34;8;7;
64627;PMS5003;59036;50.960;0.314;2022-07-24T06:22:01;5;5;
64627;PMS5003;59036;50.960;0.314;2022-07-24T06:24:28;6;6;
64627;PMS5003;59036;50.960;0.314;2022-07-24T06:26:55;8;8;
64627;PMS5003;59036;50.960;0.314;2022-07-24T06:29:22;6;6;
64627;PMS5003;59036;50.960;0.314;2022-07-24T06:31:49;7;7;
64627;PMS5003;59036;50.960;0.314;2022-07-24T06:34:16;7;7;
64627;PMS5003;59036;50.960;0.314;2022-07-24T06:36:43;7;7;
64627;PMS5003;59036;50.960;0.314;2022-07-24T06:39:10;8;8;
64627;PMS5003;59036;50.960;0.314;2022-07-24T06:41:37;8;8;
64627;PMS5003;59036;50.960;0.314;2022-07-24T06:44:04;9;7;
64627;PMS5003;59036;50.960;0.314;2022-07-24T06:46:31;7;7;
64627;PMS5003;59036;50.960;0.314;2022-07-24T06:48:59;5;5;
64627;PMS5003;59036;50.960;0.314;2022-07-24T06:51:26;8;8;
64627;PMS5003;59036;50.960;0.314;2022-07-24T06:53:53;9;8;
64627;PMS5003;59036;50.960;0.314;2022-07-24T06:56:20;8;8;
64627;PMS5003;59036;50.960;0.314;2022-07-24T06:58:47;8;8;
64627;PMS5003;59036;50.960;0.314;2022-07-24T07:01:14;6;6;
64627;PMS5003;59036;50.960;0.314;2022-07-24T07:03:41;10;10;
64627;PMS5003;59036;50.960;0.314;2022-07-24T07:06:08;7;7;
64627;PMS5003;59036;50.960;0.314;2022-07-24T07:08:34;8;8;
64627;PMS5003;59036;50.960;0.314;2022-07-24T07:11:02;8;7;
64627;PMS5003;59036;50.960;0.314;2022-07-24T07:13:28;8;8;
64627;PMS5003;59036;50.960;0.314;2022-07-24T07:15:55;7;7;
64627;PMS5003;59036;50.960;0.314;2022-07-24T07:18:22;6;6;
64627;PMS5003;59036;50.960;0.314;2022-07-24T07:20:49;9;9;
64627;PMS5003;59036;50.960;0.314;2022-07-24T07:23:16;6;6;
64627;PMS5003;59036;50.960;0.314;2022-07-24T07:25:43;6;5;
64627;PMS5003;59036;50.960;0.314;2022-07-24T07:28:10;8;8;
64627;PMS5003;59036;50.960;0.314;2022-07-24T07:30:37;6;6;
64627;PMS5003;59036;50.960;0.314;2022-07-24T07:33:04;8;7;
64627;PMS5003;59036;50.960;0.314;2022-07-24T07:35:31;7;7;
64627;PMS5003;59036;50.960;0.314;2022-07-24T07:37:58;7;7;
64627;PMS5003;59036;50.960;0.314;2022-07-24T07:40:25;8;8;
64627;PMS5003;59036;50.960;0.314;2022-07-24T07:42:52;7;7;
64627;PMS5003;59036;50.960;0.314;2022-07-24T07:45:19;7;7;
64627;PMS5003;59036;50.960;0.314;2022-07-24T07:47:46;9;8;
64627;PMS5003;59036;50.960;0.314;2022-07-24T07:50:13;8;8;
64627;PMS5003;59036;50.960;0.314;2022-07-24T07:52:40;7;6;
64627;PMS5003;59036;50.960;0.314;2022-07-24T07:55:07;9;9;
64627;PMS5003;59036;50.960;0.314;2022-07-24T07:57:35;9;9;
64627;PMS5003;59036;50.960;0.314;2022-07-24T08:00:02;6;6;
64627;PMS5003;59036;50.960;0.314;2022-07-24T08:02:29;7;6;
64627;PMS5003;59036;50.960;0.314;2022-07-24T08:04:56;7;7;
64627;PMS5003;59036;50.960;0.314;2022-07-24T08:07:23;6;6;
64627;PMS5003;59036;50.960;0.314;2022-07-24T08:09:50;8;7;
64627;PMS5003;59036;50.960;0.314;2022-07-24T08:12:17;7;6;
64627;PMS5003;59036;50.960;0.314;2022-07-24T08:14:44;6;6;
64627;PMS5003;59036;50.960;0.314;2022-07-24T08:17:11;5;5;
64627;PMS5003;59036;50.960;0.314;2022-07-24T08:19:38;6;5;
64627;PMS5003;59036;50.960;0.314;2022-07-24T08:22:05;6;6;
64627;PMS5003;59036;50.960;0.314;2022-07-24T08:24:32;6;6;
64627;PMS5003;59036;50.960;0.314;2022-07-24T08:26:59;6;5;
64627;PMS5003;59036;50.960;0.314;2022-07-24T08:29:26;6;6;
64627;PMS5003;59036;50.960;0.314;2022-07-24T08:31:54;6;6;
64627;PMS5003;59036;50.960;0.314;2022-07-24T08:34:21;6;5;
64627;PMS5003;59036;50.960;0.314;2022-07-24T08:36:48;6;6;
64627;PMS5003;59036;50.960;0.314;2022-07-24T08:39:15;6;6;
64627;PMS5003;59036;50.960;0.314;2022-07-24T08:41:42;5;5;
64627;PMS5003;59036;50.960;0.314;2022-07-24T08:44:10;5;5;
64627;PMS5003;59036;50.960;0.314;2022-07-24T08:46:38;8;8;
64627;PMS5003;59036;50.960;0.314;2022-07-24T08:49:06;7;7;
64627;PMS5003;59036;50.960;0.314;2022-07-24T08:51:36;6;6;
64627;PMS5003;59036;50.960;0.314;2022-07-24T08:54:05;6;6;
64627;PMS5003;59036;50.960;0.314;2022-07-24T08:56:33;5;5;
64627;PMS5003;59036;50.960;0.314;2022-07-24T08:59:00;6;5;
64627;PMS5003;59036;50.960;0.314;2022-07-24T09:01:28;6;6;
64627;PMS5003;59036;50.960;0.314;2022-07-24T09:03:54;6;5;
64627;PMS5003;59036;50.960;0.314;2022-07-24T09:06:21;5;5;
64627;PMS5003;59036;50.960;0.314;2022-07-24T09:08:56;5;5;
64627;PMS5003;59036;50.960;0.314;2022-07-24T09:11:24;7;6;
64627;PMS5003;59036;50.960;0.314;2022-07-24T09:13:52;4;4;
64627;PMS5003;59036;50.960;0.314;2022-07-24T09:16:19;5;5;
64627;PMS5003;59036;50.960;0.314;2022-07-24T09:18:46;6;6;
64627;PMS5003;59036;50.960;0.314;2022-07-24T09:21:14;4;3;
64627;PMS5003;59036;50.960;0.314;2022-07-24T09:23:43;7;7;
64627;PMS5003;59036;50.960;0.314;2022-07-24T09:26:11;6;6;
64627;PMS5003;59036;50.960;0.314;2022-07-24T09:28:46;5;5;
64627;PMS5003;59036;50.960;0.314;2022-07-24T09:31:15;6;5;
64627;PMS5003;59036;50.960;0.314;2022-07-24T09:33:42;6;6;
64627;PMS5003;59036;50.960;0.314;2022-07-24T09:36:13;5;5;
64627;PMS5003;59036;50.960;0.314;2022-07-24T09:38:44;5;5;
64627;PMS5003;59036;50.960;0.314;2022-07-24T09:41:19;4;4;
64627;PMS5003;59036;50.960;0.314;2022-07-24T09:43:56;5;5;
64627;PMS5003;59036;50.960;0.314;2022-07-24T09:46:24;4;4;
64627;PMS5003;59036;50.960;0.314;2022-07-24T09:48:53;5;5;
64627;PMS5003;59036;50.960;0.314;2022-07-24T09:51:21;6;6;
64627;PMS5003;59036;50.960;0.314;2022-07-24T09:53:52;6;6;
64627;PMS5003;59036;50.960;0.314;2022-07-24T09:56:21;6;5;
64627;PMS5003;59036;50.960;0.314;2022-07-24T09:58:49;6;6;
64627;PMS5003;59036;50.960;0.314;2022-07-24T10:01:19;6;5;
64627;PMS5003;59036;50.960;0.314;2022-07-24T10:03:49;5;5;
64627;PMS5003;59036;50.960;0.314;2022-07-24T10:06:18;4;4;
64627;PMS5003;59036;50.960;0.314;2022-07-24T10:08:47;3;3;
64627;PMS5003;59036;50.960;0.314;2022-07-24T10:11:16;6;6;
64627;PMS5003;59036;50.960;0.314;2022-07-24T10:13:44;6;6;
64627;PMS5003;59036;50.960;0.314;2022-07-24T10:16:20;5;5;
64627;PMS5003;59036;50.960;0.314;2022-07-24T10:18:54;5;5;
64627;PMS5003;59036;50.960;0.314;2022-07-24T10:21:24;4;4;
64627;PMS5003;59036;50.960;0.314;2022-07-24T10:24:38;3;3;
64627;PMS5003;59036;50.960;0.314;2022-07-24T10:27:23;4;4;
64627;PMS5003;59036;50.960;0.314;2022-07-24T10:29:56;5;5;
64627;PMS5003;59036;50.960;0.314;2022-07-24T10:32:25;5;5;
64627;PMS5003;59036;50.960;0.314;2022-07-24T10:35:04;5;5;
64627;PMS5003;59036;50.960;0.314;2022-07-24T10:37:39;5;5;
64627;PMS5003;59036;50.960;0.314;2022-07-24T10:40:17;4;4;
64627;PMS5003;59036;50.960;0.314;2022-07-24T10:43:21;4;4;
64627;PMS5003;59036;50.960;0.314;2022-07-24T10:46:09;3;3;
64627;PMS5003;59036;50.960;0.314;2022-07-24T10:48:38;6;5;
64627;PMS5003;59036;50.960;0.314;2022-07-24T10:51:06;4;4;
64627;PMS5003;59036;50.960;0.314;2022-07-24T10:53:44;5;5;
64627;PMS5003;59036;50.960;0.314;2022-07-24T10:56:15;3;3;
64627;PMS5003;59036;50.960;0.314;2022-07-24T10:58:53;4;4;
64627;PMS5003;59036;50.960;0.314;2022-07-24T11:01:27;4;4;
64627;PMS5003;59036;50.960;0.314;2022-07-24T11:03:56;2;2;
64627;PMS5003;59036;50.960;0.314;2022-07-24T11:06:41;5;5;
64627;PMS5003;59036;50.960;0.314;2022-07-24T11:09:09;4;4;
64627;PMS5003;59036;50.960;0.314;2022-07-24T11:11:40;4;4;
64627;PMS5003;59036;50.960;0.314;2022-07-24T11:14:07;4;4;
64627;PMS5003;59036;50.960;0.314;2022-07-24T11:16:36;4;4;
64627;PMS5003;59036;50.960;0.314;2022-07-24T11:19:36;2;2;
64627;PMS5003;59036;50.960;0.314;2022-07-24T11:22:06;5;5;
64627;PMS5003;59036;50.960;0.314;2022-07-24T11:25:04;3;3;
64627;PMS5003;59036;50.960;0.314;2022-07-24T11:27:40;3;3;
64627;PMS5003;59036;50.960;0.314;2022-07-24T11:30:09;2;2;
64627;PMS5003;59036;50.960;0.314;2022-07-24T11:32:38;3;3;
64627;PMS5003;59036;50.960;0.314;2022-07-24T11:35:06;3;3;
64627;PMS5003;59036;50.960;0.314;2022-07-24T11:37:34;4;4;
64627;PMS5003;59036;50.960;0.314;2022-07-24T11:40:03;3;3;
64627;PMS5003;59036;50.960;0.314;2022-07-24T11:42:31;3;3;
64627;PMS5003;59036;50.960;0.314;2022-07-24T11:44:59;2;2;
64627;PMS5003;59036;50.960;0.314;2022-07-24T11:47:27;3;3;
64627;PMS5003;59036;50.960;0.314;2022-07-24T11:49:55;3;3;
64627;PMS5003;59036;50.960;0.314;2022-07-24T11:52:24;2;2;
64627;PMS5003;59036;50.960;0.314;2022-07-24T11:54:53;3;3;
64627;PMS5003;59036;50.960;0.314;2022-07-24T11:57:21;4;4;
64627;PMS5003;59036;50.960;0.314;2022-07-24T11:59:53;2;2;
64627;PMS5003;59036;50.960;0.314;2022-07-24T12:02:20;2;2;
64627;PMS5003;59036;50.960;0.314;2022-07-24T12:04:48;4;4;
64627;PMS5003;59036;50.960;0.314;2022-07-24T12:07:16;3;3;
64627;PMS5003;59036;50.960;0.314;2022-07-24T12:09:45;3;3;
64627;PMS5003;59036;50.960;0.314;2022-07-24T12:12:20;4;4;
64627;PMS5003;59036;50.960;0.314;2022-07-24T12:14:50;3;3;
64627;PMS5003;59036;50.960;0.314;2022-07-24T12:17:19;4;4;
64627;PMS5003;59036;50.960;0.314;2022-07-24T12:19:50;1;1;
64627;PMS5003;59036;50.960;0.314;2022-07-24T12:22:18;4;4;
64627;PMS5003;59036;50.960;0.314;2022-07-24T12:24:47;2;2;
64627;PMS5003;59036;50.960;0.314;2022-07-24T12:27:40;5;4;
64627;PMS5003;59036;50.960;0.314;2022-07-24T12:30:17;3;3;
64627;PMS5003;59036;50.960;0.314;2022-07-24T12:32:53;6;6;
64627;PMS5003;59036;50.960;0.314;2022-07-24T12:35:22;3;3;
64627;PMS5003;59036;50.960;0.314;2022-07-24T12:37:50;2;2;
64627;PMS5003;59036;50.960;0.314;2022-07-24T12:40:23;3;2;
64627;PMS5003;59036;50.960;0.314;2022-07-24T12:42:57;3;3;
64627;PMS5003;59036;50.960;0.314;2022-07-24T12:45:25;2;2;
64627;PMS5003;59036;50.960;0.314;2022-07-24T12:48:24;2;2;
64627;PMS5003;59036;50.960;0.314;2022-07-24T12:51:00;2;2;
64627;PMS5003;59036;50.960;0.314;2022-07-24T12:53:30;2;2;
64627;PMS5003;59036;50.960;0.314;2022-07-24T12:56:01;3;3;
64627;PMS5003;59036;50.960;0.314;2022-07-24T12:58:48;3;3;
64627;PMS5003;59036;50.960;0.314;2022-07-24T13:01:17;2;2;
64627;PMS5003;59036;50.960;0.314;2022-07-24T13:03:49;2;2;
64627;PMS5003;59036;50.960;0.314;2022-07-24T13:06:19;2;2;
64627;PMS5003;59036;50.960;0.314;2022-07-24T13:08:58;3;3;
64627;PMS5003;59036;50.960;0.314;2022-07-24T13:11:25;2;2;
64627;PMS5003;59036;50.960;0.314;2022-07-24T13:13:52;3;3;
64627;PMS5003;59036;50.960;0.314;2022-07-24T13:16:19;3;3;
64627;PMS5003;59036;50.960;0.314;2022-07-24T13:18:46;3;3;
64627;PMS5003;59036;50.960;0.314;2022-07-24T13:21:12;3;3;
64627;PMS5003;59036;50.960;0.314;2022-07-24T13:23:39;3;3;
64627;PMS5003;59036;50.960;0.314;2022-07-24T13:26:06;3;3;
64627;PMS5003;59036;50.960;0.314;2022-07-24T13:28:34;3;3;
64627;PMS5003;59036;50.960;0.314;2022-07-24T13:31:02;4;3;
64627;PMS5003;59036;50.960;0.314;2022-07-24T13:33:29;4;3;
64627;PMS5003;59036;50.960;0.314;2022-07-24T13:35:56;1;1;
64627;PMS5003;59036;50.960;0.314;2022-07-24T13:38:24;4;4;
64627;PMS5003;59036;50.960;0.314;2022-07-24T13:40:51;3;3;
64627;PMS5003;59036;50.960;0.314;2022-07-24T13:43:18;5;5;
64627;PMS5003;59036;50.960;0.314;2022-07-24T13:45:44;1;1;
64627;PMS5003;59036;50.960;0.314;2022-07-24T13:48:11;3;3;
64627;PMS5003;59036;50.960;0.314;2022-07-24T13:50:38;3;3;
64627;PMS5003;59036;50.960;0.314;2022-07-24T13:53:05;1;1;
64627;PMS5003;59036;50.960;0.314;2022-07-24T13:55:32;2;2;
64627;PMS5003;59036;50.960;0.314;2022-07-24T13:57:59;3;3;
64627;PMS5003;59036;50.960;0.314;2022-07-24T14:00:26;3;3;
64627;PMS5003;59036;50.960;0.314;2022-07-24T14:02:52;3;3;
64627;PMS5003;59036;50.960;0.314;2022-07-24T14:05:19;3;3;
64627;PMS5003;59036;50.960;0.314;2022-07-24T14:07:46;2;2;
64627;PMS5003;59036;50.960;0.314;2022-07-24T14:10:14;3;3;
64627;PMS5003;59036;50.960;0.314;2022-07-24T14:12:41;2;2;
64627;PMS5003;59036;50.960;0.314;2022-07-24T14:15:08;3;3;
64627;PMS5003;59036;50.960;0.314;2022-07-24T14:17:35;3;3;
64627;PMS5003;59036;50.960;0.314;2022-07-24T14:20:02;2;2;
64627;PMS5003;59036;50.960;0.314;2022-07-24T14:22:30;2;2;
64627;PMS5003;59036;50.960;0.314;2022-07-24T14:24:57;1;1;
64627;PMS5003;59036;50.960;0.314;2022-07-24T14:27:23;3;3;
64627;PMS5003;59036;50.960;0.314;2022-07-24T14:29:50;3;3;
64627;PMS5003;59036;50.960;0.314;2022-07-24T14:32:17;3;3;
64627;PMS5003;59036;50.960;0.314;2022-07-24T14:34:44;3;2;
64627;PMS5003;59036;50.960;0.314;2022-07-24T14:37:11;3;3;
64627;PMS5003;59036;50.960;0.314;2022-07-24T14:39:38;2;2;
64627;PMS5003;59036;50.960;0.314;2022-07-24T14:42:05;3;2;
64627;PMS5003;59036;50.960;0.314;2022-07-24T14:44:32;2;2;
64627;PMS5003;59036;50.960;0.314;2022-07-24T14:46:59;2;2;
64627;PMS5003;59036;50.960;0.314;2022-07-24T14:49:26;3;3;
64627;PMS5003;59036;50.960;0.314;2022-07-24T14:51:53;2;2;
64627;PMS5003;59036;50.960;0.314;2022-07-24T14:54:20;3;3;
64627;PMS5003;59036;50.960;0.314;2022-07-24T14:56:47;2;2;
64627;PMS5003;59036;50.960;0.314;2022-07-24T14:59:14;2;2;
64627;PMS5003;59036;50.960;0.314;2022-07-24T15:01:41;4;4;
64627;PMS5003;59036;50.960;0.314;2022-07-24T15:04:08;2;2;
64627;PMS5003;59036;50.960;0.314;2022-07-24T15:06:35;2;2;
64627;PMS5003;59036;50.960;0.314;2022-07-24T15:09:03;3;3;
64627;PMS5003;59036;50.960;0.314;2022-07-24T15:11:31;2;2;
64627;PMS5003;59036;50.960;0.314;2022-07-24T15:13:58;2;2;
64627;PMS5003;59036;50.960;0.314;2022-07-24T15:16:25;3;3;
64627;PMS5003;59036;50.960;0.314;2022-07-24T15:18:52;2;2;
64627;PMS5003;59036;50.960;0.314;2022-07-24T15:21:19;3;2;
64627;PMS5003;59036;50.960;0.314;2022-07-24T15:23:45;2;2;
64627;PMS5003;59036;50.960;0.314;2022-07-24T15:26:12;2;2;
64627;PMS5003;59036;50.960;0.314;2022-07-24T15:28:39;3;3;
64627;PMS5003;59036;50.960;0.314;2022-07-24T15:31:06;2;2;
64627;PMS5003;59036;50.960;0.314;2022-07-24T15:33:33;3;3;
64627;PMS5003;59036;50.960;0.314;2022-07-24T15:36:00;3;3;
64627;PMS5003;59036;50.960;0.314;2022-07-24T15:38:27;3;3;
64627;PMS5003;59036;50.960;0.314;2022-07-24T15:40:54;2;2;
64627;PMS5003;59036;50.960;0.314;2022-07-24T15:43:22;0;0;
64627;PMS5003;59036;50.960;0.314;2022-07-24T15:45:49;1;1;
64627;PMS5003;59036;50.960;0.314;2022-07-24T15:48:15;3;3;
64627;PMS5003;59036;50.960;0.314;2022-07-24T15:50:42;2;2;
64627;PMS5003;59036;50.960;0.314;2022-07-24T15:53:09;2;2;
64627;PMS5003;59036;50.960;0.314;2022-07-24T15:55:37;1;1;
64627;PMS5003;59036;50.960;0.314;2022-07-24T15:58:03;2;2;
64627;PMS5003;59036;50.960;0.314;2022-07-24T16:00:30;2;2;
64627;PMS5003;59036;50.960;0.314;2022-07-24T16:02:57;1;1;
64627;PMS5003;59036;50.960;0.314;2022-07-24T16:05:24;2;2;
64627;PMS5003;59036;50.960;0.314;2022-07-24T16:07:51;1;1;
64627;PMS5003;59036;50.960;0.314;2022-07-24T16:10:23;2;2;
64627;PMS5003;59036;50.960;0.314;2022-07-24T16:12:56;4;4;
64627;PMS5003;59036;50.960;0.314;2022-07-24T16:15:23;3;2;
64627;PMS5003;59036;50.960;0.314;2022-07-24T16:17:50;3;3;
64627;PMS5003;59036;50.960;0.314;2022-07-24T16:20:17;3;2;
64627;PMS5003;59036;50.960;0.314;2022-07-24T16:22:44;3;3;
64627;PMS5003;59036;50.960;0.314;2022-07-24T16:25:11;3;3;
64627;PMS5003;59036;50.960;0.314;2022-07-24T16:27:38;3;3;
64627;PMS5003;59036;50.960;0.314;2022-07-24T16:30:05;2;2;
64627;PMS5003;59036;50.960;0.314;2022-07-24T16:32:34;3;3;
64627;PMS5003;59036;50.960;0.314;2022-07-24T16:35:00;2;2;
64627;PMS5003;59036;50.960;0.314;2022-07-24T16:37:28;2;2;
64627;PMS5003;59036;50.960;0.314;2022-07-24T16:39:56;3;3;
64627;PMS5003;59036;50.960;0.314;2022-07-24T16:42:22;2;2;
64627;PMS5003;59036;50.960;0.314;2022-07-24T16:44:49;3;2;
64627;PMS5003;59036;50.960;0.314;2022-07-24T16:47:16;3;3;
64627;PMS5003;59036;50.960;0.314;2022-07-24T16:49:43;1;1;
64627;PMS5003;59036;50.960;0.314;2022-07-24T16:52:11;1;1;
64627;PMS5003;59036;50.960;0.314;2022-07-24T16:54:39;1;1;